CDT,Max TemperatureF,Mean TemperatureF,Min TemperatureF,Max Dew PointF,MeanDew PointF,Min DewpointF,Max Humidity, Mean Humidity, Min Humidity, Max Sea Level PressureIn, Mean Sea Level PressureIn, Min Sea Level PressureIn, Max VisibilityMiles, Mean VisibilityMiles, Min VisibilityMiles, Max Wind SpeedMPH, Mean Wind SpeedMPH, Max Gust SpeedMPH,PrecipitationIn, CloudCover, Events, WindDirDegrees
2012-9-1,86,72,59,63,57,55,88,60,35,30.08,30.03,29.98,10,10,7,13,7,16,0.00,0,,69
2012-9-2,89,74,59,66,60,54,83,62,40,30.01,29.94,29.88,10,10,10,14,6,18,0.00,0,,152
2012-9-3,82,73,64,70,67,63,94,79,54,29.95,29.91,29.87,10,10,7,13,8,16,0.00,1,,193
2012-9-4,93,78,64,72,66,63,100,70,38,29.95,29.84,29.73,10,9,2,14,6,24,0.55,1,Rain,122
2012-9-5,80,70,59,64,57,48,100,68,34,29.95,29.86,29.75,10,10,4,15,8,21,0.16,1,Rain,323
2012-9-6,82,66,50,55,49,43,94,55,26,30.02,29.93,29.84,10,10,10,15,6,21,0.00,1,,153
2012-9-7,71,61,51,63,52,41,100,70,38,30.06,29.95,29.79,10,10,4,20,9,25,0.06,2,Rain,350
2012-9-8,80,62,44,48,44,37,93,58,24,30.09,30.01,29.86,10,10,9,23,10,40,0.00,0,,307
2012-9-9,73,60,48,52,47,45,94,65,36,30.22,30.14,30.07,10,10,10,12,6,13,0.00,0,,354
2012-9-10,82,66,50,50,47,45,87,55,26,30.12,30.01,29.89,10,10,10,26,13,37,0.00,0,,186
2012-9-11,93,76,59,52,50,46,77,45,21,29.90,29.86,29.81,10,10,10,29,18,40,0.00,0,,191
2012-9-12,75,64,53,59,50,37,94,69,35,30.30,30.13,29.91,10,9,2,22,10,30,0.45,6,Rain,17
2012-9-13,71,60,50,52,48,39,100,72,33,30.39,30.33,30.29,10,10,8,12,4,15,0.00,2,,210
2012-9-14,78,62,46,50,45,37,100,63,23,30.33,30.28,30.22,10,10,9,10,6,12,0.00,0,,182
2012-9-15,80,65,50,46,44,39,87,55,23,30.25,30.17,30.06,10,10,10,21,12,29,0.00,0,,197
2012-9-16,78,64,51,59,53,46,94,69,39,30.06,29.97,29.89,10,10,2,18,11,24,0.00,0,,207
2012-9-17,62,53,44,57,44,34,94,67,34,30.03,29.98,29.90,10,10,4,18,10,25,0.10,3,Rain,348
2012-9-18,62,50,37,41,34,25,93,58,25,30.07,30.01,29.91,10,10,4,14,7,21,0.00,2,,314
2012-9-19,80,65,50,46,37,27,71,43,17,29.94,29.81,29.72,10,10,9,23,14,36,0.00,0,,247
2012-9-20,68,55,42,36,32,27,70,47,21,30.00,29.95,29.92,10,10,7,18,8,24,0.00,1,,286
2012-9-21,69,60,48,43,38,32,76,50,25,29.92,29.86,29.80,10,10,9,20,6,28,0.00,4,,13
2012-9-22,59,47,35,37,30,23,70,52,31,30.27,30.16,29.90,10,10,10,22,12,30,0.00,2,,336
2012-9-23,60,45,30,32,26,23,86,50,23,30.35,30.28,30.20,10,10,3,10,6,16,0.00,0,,309
2012-9-24,77,58,39,41,33,25,65,44,21,30.20,29.99,29.83,10,10,10,25,11,32,0.00,0,,211
2012-9-25,77,62,46,43,38,34,82,50,21,29.93,29.86,29.81,10,10,7,13,7,17,0.00,0,,345
2012-9-26,68,52,37,36,31,28,81,49,23,30.18,30.07,29.96,10,7,1,13,6,17,0.00,0,,4
2012-9-27,69,51,33,43,36,30,87,56,27,30.24,30.19,30.15,10,7,0,9,5,14,0.00,0,,84
2012-9-28,75,58,42,45,38,34,76,49,24,30.24,30.17,30.13,10,9,3,13,5,,0.00,0,,162
2012-9-29,80,62,44,39,37,36,76,42,20,30.17,30.10,30.02,10,9,5,12,6,17,0.00,0,,276
2012-9-30,80,63,46,45,38,37,71,41,21,30.03,29.96,29.90,10,10,4,9,4,15,0.00,0,,360